Terminal Aerodrome Forecast
Issued by NWS Blacksburg, VA

Home | Current Version | Previous Version | Text Only | Print | Product List | Glossary On
Versions: 1 2 3 4 5 6 7 8 9 10 11 12
000
FTUS41 KRNK 281739
TAFDAN
TAF
KDAN 281739Z 2818/2918 15005KT P6SM FEW060 SCT250
     FM290000 12004KT P6SM BKN250
     FM290500 VRB03KT P6SM OVC080
     FM291000 11004KT P6SM -RA SCT030 OVC050
     FM291300 06004KT 4SM RA SCT018 OVC030=

USA.gov is the U.S. government's official web portal to all federal, state and local government web resources and services.